Terminal Aerodrome Forecast
Issued by NWS North Platte, NE

Home | Current Version | Previous Version | Text Only | Print | Product List | Glossary Off
Versions: 1 2 3 4 5 6 7 8 9 10 11 12 13 14 15 16 17

000
FTUS43 KLBF 010520
TAFVTN
TAF
KVTN 010520Z 0106/0206 36007KT P6SM FEW100
     FM011200 VRB06KT P6SM VCTS BKN080CB
     FM011400 08005KT P6SM SCT080=

USA.gov is the U.S. government's official web portal to all federal, state and local government web resources and services.